Time;durP1;ratioP1;P1;durP2;ratioP2;P2;SDS_P1;SDS_P2;PMS_P1;PMS_P2;Temp;Humidity;BMP_temperature;BMP_pressure;BME280_temperature;BME280_humidity;BME280_pressure;Samples;Min_cycle;Max_cycle;Signal;HPM_P1;HPM_P2
2022/09/16 00:00:35;;;;;;;8.43;2.80;;;;;;;11.75;94.81;100959.50;5261419;28;20128;-67
2022/09/16 00:03:06;;;;;;;10.50;2.87;;;;;;;11.73;94.96;100954.28;5263487;28;20029;-68
2022/09/16 00:05:47;;;;;;;12.77;3.00;;;;;;;11.70;96.25;100958.69;5263558;28;20037;-67
2022/09/16 00:08:19;;;;;;;8.50;2.45;;;;;;;11.68;96.71;100958.72;5261746;28;20476;-66
2022/09/16 00:10:51;;;;;;;8.93;2.90;;;;;;;11.73;96.98;100945.59;5262896;28;20045;-67
2022/09/16 00:13:22;;;;;;;7.50;2.20;;;;;;;11.81;97.38;100946.34;5262740;28;20131;-67
2022/09/16 00:15:53;;;;;;;10.03;3.10;;;;;;;11.75;97.14;100956.88;5263120;28;20437;-66
2022/09/16 00:18:25;;;;;;;8.83;2.83;;;;;;;11.81;96.95;100951.56;5262770;28;20039;-67
2022/09/16 00:20:56;;;;;;;6.03;2.50;;;;;;;11.85;96.95;100943.66;5262981;28;20033;-67
2022/09/16 00:23:27;;;;;;;8.73;2.97;;;;;;;11.93;98.10;100937.47;5262600;28;20147;-66
2022/09/16 00:25:59;;;;;;;7.13;2.83;;;;;;;11.89;97.35;100939.25;5262422;28;20036;-67
2022/09/16 00:28:31;;;;;;;9.33;3.27;;;;;;;11.96;97.89;100937.44;5261568;28;20108;-67
2022/09/16 00:31:02;;;;;;;12.00;3.13;;;;;;;11.84;97.40;100941.06;5262752;28;20033;-68
2022/09/16 00:33:34;;;;;;;6.78;2.80;;;;;;;11.92;98.24;100936.63;5260800;28;20114;-68
2022/09/16 00:36:14;;;;;;;7.93;2.57;;;;;;;11.81;97.74;100939.34;5276659;28;20036;-67
2022/09/16 00:38:50;;;;;;;8.40;2.58;;;;;;;11.76;97.43;100945.56;5262021;28;20021;-67
2022/09/16 00:41:25;;;;;;;12.70;2.92;;;;;;;11.75;97.64;100941.22;5261785;28;20025;-68
2022/09/16 00:44:02;;;;;;;10.95;3.95;;;;;;;11.62;97.12;100938.81;5262394;28;20029;-68
2022/09/16 00:46:42;;;;;;;6.80;2.60;;;;;;;11.57;97.25;100929.28;5260998;28;20584;-68
2022/09/16 00:49:17;;;;;;;10.68;3.53;;;;;;;11.43;96.75;100926.88;5262301;28;20052;-68
2022/09/16 00:51:52;;;;;;;7.20;2.95;;;;;;;11.37;96.80;100920.00;5262097;28;20032;-68
2022/09/16 00:54:25;;;;;;;8.93;3.20;;;;;;;11.25;97.26;100920.16;5262293;28;20033;-66
2022/09/16 00:57:00;;;;;;;6.55;2.92;;;;;;;11.15;97.89;100926.41;5262614;28;20029;-67
2022/09/16 00:59:36;;;;;;;7.85;2.97;;;;;;;11.16;98.10;100926.38;5262491;28;20025;-66
2022/09/16 01:02:11;;;;;;;8.35;3.00;;;;;;;11.18;98.52;100922.00;5262523;28;20035;-67
2022/09/16 01:05:00;;;;;;;6.38;2.92;;;;;;;11.18;99.11;100922.00;5262136;28;20111;-67
2022/09/16 01:07:41;;;;;;;9.68;3.60;;;;;;;11.17;99.37;100919.41;5259798;28;20182;-67
2022/09/16 01:10:15;;;;;;;7.43;3.38;;;;;;;11.03;99.61;100920.44;5260964;28;20045;-68
2022/09/16 01:12:54;;;;;;;10.65;3.53;;;;;;;11.08;99.31;100918.63;5260408;28;20468;-67
2022/09/16 01:15:59;;;;;;;14.43;3.70;;;;;;;11.01;99.32;100911.78;5261121;28;20125;-68
2022/09/16 01:18:49;;;;;;;11.73;3.20;;;;;;;10.84;99.43;100917.19;5214088;28;20033;-67
2022/09/16 01:21:23;;;;;;;9.30;3.03;;;;;;;10.86;99.73;100910.22;5255881;28;20030;-67
2022/09/16 01:24:32;;;;;;;9.10;3.15;;;;;;;10.76;100.00;100924.25;5241120;28;20044;-67
2022/09/16 01:27:28;;;;;;;9.73;3.42;;;;;;;10.72;100.00;100917.31;5241167;28;20425;-68
2022/09/16 01:30:06;;;;;;;11.52;3.28;;;;;;;10.74;100.00;100913.84;5256214;28;20033;-68
2022/09/16 01:32:48;;;;;;;9.98;3.10;;;;;;;10.76;100.00;100919.03;5241176;28;20119;-67
2022/09/16 01:35:32;;;;;;;6.53;3.30;;;;;;;10.69;100.00;100917.34;5241477;28;20448;-67
2022/09/16 01:38:19;;;;;;;9.88;3.58;;;;;;;10.60;100.00;100926.16;5241537;28;20495;-67
2022/09/16 01:41:17;;;;;;;12.25;3.72;;;;;;;10.54;100.00;100918.41;5241440;28;20029;-66
2022/09/16 01:43:58;;;;;;;10.23;2.90;;;;;;;10.61;100.00;100921.78;5245240;28;20026;-67
2022/09/16 01:47:06;;;;;;;11.85;3.65;;;;;;;10.60;100.00;100918.34;5245189;28;20033;-67
2022/09/16 01:49:45;;;;;;;12.15;3.00;;;;;;;10.45;100.00;100924.59;5190457;28;20056;-67
2022/09/16 01:52:26;;;;;;;13.23;3.65;;;;;;;10.43;100.00;100908.06;5245177;28;20029;-67
2022/09/16 01:55:03;;;;;;;8.50;3.17;;;;;;;10.43;100.00;100913.28;5245163;28;20043;-67
2022/09/16 01:58:01;;;;;;;12.55;4.05;;;;;;;10.36;100.00;100909.03;5244863;28;20047;-67
2022/09/16 02:00:33;;;;;;;11.60;4.30;;;;;;;10.34;100.00;100911.66;5241539;28;20103;-67
2022/09/16 02:03:09;;;;;;;8.87;3.90;;;;;;;10.25;100.00;100921.25;5243718;28;20484;-68
2022/09/16 02:05:52;;;;;;;9.10;3.33;;;;;;;10.27;100.00;100915.19;5244641;28;20021;-68
2022/09/16 02:08:39;;;;;;;;;;;;;;;10.29;100.00;100925.53;5245185;28;20434;-67
2022/09/16 02:11:14;;;;;;;9.10;3.70;;;;;;;10.28;100.00;100937.72;5244623;28;19924;-68
2022/09/16 02:14:12;;;;;;;12.98;3.50;;;;;;;10.30;100.00;100927.28;5259785;28;20071;-66
2022/09/16 02:16:57;;;;;;;12.25;2.92;;;;;;;10.26;100.00;100928.22;5244962;28;20029;-68
2022/09/16 02:19:33;;;;;;;9.93;3.63;;;;;;;10.32;100.00;100936.88;5244653;28;20384;-66
2022/09/16 02:22:10;;;;;;;6.70;2.80;;;;;;;10.40;100.00;100928.97;5259834;28;20037;-67
2022/09/16 02:24:45;;;;;;;9.77;3.30;;;;;;;10.34;100.00;100927.28;5244260;28;20029;-67
2022/09/16 02:27:20;;;;;;;10.23;3.38;;;;;;;10.36;100.00;100920.31;5244361;28;20029;-67
2022/09/16 02:30:01;;;;;;;9.98;3.88;;;;;;;10.33;100.00;100922.94;5243971;28;20164;-68
2022/09/16 02:32:37;;;;;;;13.45;3.72;;;;;;;10.33;100.00;100925.53;5244226;28;20078;-67
2022/09/16 02:35:12;;;;;;;8.60;3.08;;;;;;;10.33;99.99;100927.28;5244490;28;20104;-67
2022/09/16 02:37:59;;;;;;;6.95;2.70;;;;;;;10.36;100.00;100920.31;5244258;28;20025;-66
2022/09/16 02:40:40;;;;;;;8.63;2.63;;;;;;;10.44;100.00;100925.44;5244155;28;20116;-67
2022/09/16 02:43:12;;;;;;;11.70;3.80;;;;;;;10.42;100.00;100918.50;5244013;28;20037;-67
2022/09/16 02:46:05;;;;;;;10.77;3.80;;;;;;;10.47;100.00;100917.59;5243840;28;20068;-66
2022/09/16 02:48:51;;;;;;;10.50;3.15;;;;;;;10.47;100.00;100917.59;5243961;28;20029;-67
2022/09/16 02:51:41;;;;;;;9.45;2.83;;;;;;;10.50;99.95;100928.00;5243868;28;20040;-67
2022/09/16 02:54:36;;;;;;;7.47;2.88;;;;;;;10.52;100.00;100928.84;5244016;28;20469;-68
2022/09/16 02:57:08;;;;;;;10.75;3.00;;;;;;;10.45;99.97;100927.19;5243619;28;20029;-68
2022/09/16 02:59:40;;;;;;;11.73;3.38;;;;;;;10.44;99.77;100925.44;5243650;28;20099;-66
2022/09/16 03:02:12;;;;;;;9.82;3.35;;;;;;;10.40;100.00;100924.63;5243223;28;20034;-66
2022/09/16 03:04:44;;;;;;;8.87;3.10;;;;;;;10.41;100.00;100917.66;5259069;28;20480;-67
2022/09/16 03:07:16;;;;;;;10.90;2.73;;;;;;;10.49;100.00;100918.44;5243753;28;20038;-68
2022/09/16 03:09:49;;;;;;;6.82;3.00;;;;;;;10.39;100.00;100920.28;5243790;28;20053;-67
2022/09/16 03:12:45;;;;;;;12.07;3.15;;;;;;;10.39;100.00;100919.44;5243545;28;20034;-67
2022/09/16 03:15:16;;;;;;;13.38;2.90;;;;;;;10.41;100.00;100909.84;5243691;28;20036;-67
2022/09/16 03:18:00;;;;;;;11.30;3.10;;;;;;;10.51;100.00;100906.28;5243482;28;20029;-68
2022/09/16 03:21:19;;;;;;;17.70;3.10;;;;;;;10.52;100.00;100910.59;5243270;28;20084;-67
2022/09/16 03:24:16;;;;;;;13.05;3.30;;;;;;;10.53;100.00;100914.94;5237694;28;20041;-68
2022/09/16 03:27:10;;;;;;;11.77;3.08;;;;;;;10.50;100.00;100914.97;5243376;28;20480;-67
2022/09/16 03:30:00;;;;;;;6.13;2.58;;;;;;;10.52;100.00;100914.94;5243585;28;20037;-67
2022/09/16 03:32:37;;;;;;;9.65;2.95;;;;;;;10.46;100.00;100915.88;5243212;28;20116;-67
2022/09/16 03:35:33;;;;;;;10.20;2.95;;;;;;;10.48;100.00;100921.94;5243372;28;20041;-67
2022/09/16 03:38:07;;;;;;;8.75;2.80;;;;;;;10.45;100.00;100908.94;5243061;28;20112;-67
2022/09/16 03:40:41;;;;;;;11.38;3.13;;;;;;;10.38;100.00;100910.75;5241805;28;20546;-67
2022/09/16 03:43:17;;;;;;;7.28;3.65;;;;;;;10.35;100.00;100912.50;5242892;28;20044;-67
2022/09/16 03:45:50;;;;;;;7.30;2.85;;;;;;;10.30;100.00;100909.91;5242782;28;20021;-68
2022/09/16 03:48:21;;;;;;;6.13;2.85;;;;;;;10.28;100.00;100910.81;5243152;28;20025;-66
2022/09/16 03:50:53;;;;;;;8.43;2.60;;;;;;;10.25;100.00;100903.88;5241483;28;20045;-67
2022/09/16 03:53:24;;;;;;;11.63;2.80;;;;;;;10.21;100.00;100910.88;5241658;28;20112;-67
2022/09/16 03:55:55;;;;;;;9.77;2.90;;;;;;;10.18;100.00;100908.28;5242557;28;20436;-65
2022/09/16 03:58:27;;;;;;;13.27;2.93;;;;;;;10.17;100.00;100903.94;5242595;28;20033;-67
2022/09/16 04:00:58;;;;;;;10.10;3.27;;;;;;;10.17;100.00;100909.16;5242264;28;20037;-68
2022/09/16 04:03:30;;;;;;;12.40;4.80;;;;;;;10.22;100.00;100909.13;5240889;28;20378;-67
2022/09/16 04:06:02;;;;;;;9.20;2.75;;;;;;;10.26;100.00;100908.22;5242570;28;20398;-66
2022/09/16 04:08:34;;;;;;;8.70;3.03;;;;;;;10.27;100.00;100911.69;5242551;28;20182;-66
2022/09/16 04:11:06;;;;;;;11.52;3.03;;;;;;;10.28;100.00;100910.81;5242912;28;20046;-67
2022/09/16 04:13:37;;;;;;;5.50;2.57;;;;;;;10.27;100.00;100914.28;5241923;28;20049;-67
2022/09/16 04:16:08;;;;;;;7.77;2.73;;;;;;;10.24;100.00;100910.00;5257738;28;20042;-67
2022/09/16 04:18:40;;;;;;;8.10;3.40;;;;;;;10.29;100.00;100908.19;5242274;28;20052;-67
2022/09/16 04:21:12;;;;;;;6.93;2.63;;;;;;;10.30;100.00;100914.25;5242459;28;20452;-68
2022/09/16 04:23:43;;;;;;;10.45;2.50;;;;;;;10.31;100.00;100911.66;5241966;28;20036;-68
2022/09/16 04:26:15;;;;;;;7.67;2.70;;;;;;;10.30;100.00;100911.66;5242163;28;20373;-67
2022/09/16 04:28:47;;;;;;;8.30;2.80;;;;;;;10.30;100.00;100922.06;5242143;28;20036;-67
2022/09/16 04:31:19;;;;;;;9.97;2.47;;;;;;;10.33;100.00;100915.13;5241516;28;20033;-68
2022/09/16 04:33:50;;;;;;;8.37;2.67;;;;;;;10.32;100.00;100922.91;5241827;28;20025;-68
2022/09/16 04:36:22;;;;;;;15.37;3.33;;;;;;;10.35;100.00;100916.00;5241048;28;20041;-67
2022/09/16 04:38:53;;;;;;;8.40;2.87;;;;;;;10.37;100.00;100932.47;5241880;28;20401;-67
2022/09/16 04:41:26;;;;;;;10.43;3.00;;;;;;;10.36;100.00;100933.34;5241858;28;20350;-68
2022/09/16 04:43:58;;;;;;;10.77;3.13;;;;;;;10.40;100.00;100927.22;5241828;28;20033;-67
2022/09/16 04:46:31;;;;;;;;;;;;;;;10.46;100.00;100923.69;5257355;28;20029;-68
2022/09/16 04:49:02;;;;;;;6.85;2.08;;;;;;;10.41;100.00;100920.25;5241833;28;19924;-68
2022/09/16 04:51:34;;;;;;;6.67;2.57;;;;;;;10.44;100.00;100915.03;5241966;28;20365;-67
2022/09/16 04:54:05;;;;;;;8.27;2.40;;;;;;;10.45;100.00;100910.66;5241971;28;20480;-68
2022/09/16 04:56:37;;;;;;;9.03;3.13;;;;;;;10.48;100.00;100889.78;5241571;28;20037;-67
2022/09/16 04:59:09;;;;;;;10.33;2.30;;;;;;;10.47;100.00;100906.31;5241545;28;20033;-67
2022/09/16 05:01:40;;;;;;;8.63;2.72;;;;;;;10.47;100.00;100899.34;5241193;28;20025;-67
2022/09/16 05:04:11;;;;;;;4.40;2.10;;;;;;;10.45;100.00;100905.44;5241494;28;20491;-67
2022/09/16 05:06:43;;;;;;;5.97;1.70;;;;;;;10.43;100.00;100902.84;5241486;28;20042;-67
2022/09/16 05:09:14;;;;;;;5.30;2.00;;;;;;;10.39;100.00;100909.84;5241658;28;20049;-68
2022/09/16 05:11:46;;;;;;;6.93;1.80;;;;;;;10.38;100.00;100907.25;5241727;28;20057;-67
2022/09/16 05:14:17;;;;;;;6.23;1.93;;;;;;;10.33;100.00;100915.13;5241847;28;20108;-66
2022/09/16 05:16:49;;;;;;;9.43;2.57;;;;;;;10.32;100.00;100910.81;5243641;28;20120;-67
2022/09/16 05:19:21;;;;;;;7.23;1.70;;;;;;;10.33;100.00;100927.28;5245760;28;20033;-67
2022/09/16 05:21:52;;;;;;;10.82;2.63;;;;;;;10.28;100.00;100922.09;5245457;28;20119;-68
2022/09/16 05:24:23;;;;;;;7.00;2.50;;;;;;;10.30;100.00;100924.69;5245734;28;20037;-68
2022/09/16 05:26:55;;;;;;;4.67;1.87;;;;;;;10.31;100.00;100931.63;5244884;28;20065;-67
2022/09/16 05:29:26;;;;;;;5.00;1.90;;;;;;;10.35;100.00;100930.75;5245737;28;20030;-67
2022/09/16 05:31:57;;;;;;;10.20;2.33;;;;;;;10.36;100.00;100924.66;5245122;28;20373;-67
2022/09/16 05:34:29;;;;;;;5.13;2.17;;;;;;;10.44;100.00;100922.84;5227582;28;20026;-68
2022/09/16 05:37:00;;;;;;;6.47;1.87;;;;;;;10.45;100.00;100926.31;5244212;28;20548;-68
2022/09/16 05:39:32;;;;;;;6.93;2.07;;;;;;;10.50;100.00;100932.34;5245528;28;20037;-68
2022/09/16 05:42:04;;;;;;;12.98;2.30;;;;;;;10.54;100.00;100929.69;5245194;28;20033;-67
2022/09/16 05:44:36;;;;;;;7.13;2.77;;;;;;;10.58;100.00;100930.53;5245179;28;20033;-68
2022/09/16 05:47:07;;;;;;;12.93;2.37;;;;;;;10.60;100.00;100927.91;5245013;28;20037;-67
2022/09/16 05:49:38;;;;;;;7.83;2.20;;;;;;;10.65;100.00;100932.19;5245835;28;20034;-68
2022/09/16 05:52:10;;;;;;;11.33;2.63;;;;;;;10.68;100.00;100932.16;5260085;28;20072;-68
2022/09/16 05:54:41;;;;;;;10.50;1.93;;;;;;;10.76;100.00;100927.72;5244747;28;20041;-68
2022/09/16 05:57:13;;;;;;;7.70;2.00;;;;;;;10.78;100.00;100919.88;5244665;28;20033;-68
2022/09/16 05:59:44;;;;;;;7.45;2.05;;;;;;;10.82;100.00;100923.28;5243632;28;20040;-67
2022/09/16 06:02:16;;;;;;;11.70;2.53;;;;;;;10.82;100.00;100923.28;5244430;28;20033;-67
2022/09/16 06:04:47;;;;;;;4.00;1.97;;;;;;;10.84;100.00;100922.41;5244506;28;20059;-67
2022/09/16 06:07:18;;;;;;;6.27;2.50;;;;;;;10.85;100.00;100918.06;5245000;28;20040;-67
2022/09/16 06:09:50;;;;;;;7.93;1.90;;;;;;;10.84;100.00;100925.03;5244572;28;20052;-67
2022/09/16 06:12:21;;;;;;;7.40;2.37;;;;;;;10.84;100.00;100932.84;5244612;28;20033;-68
2022/09/16 06:14:52;;;;;;;7.23;1.63;;;;;;;10.82;100.00;100924.19;5244311;28;20083;-66
2022/09/16 06:17:24;;;;;;;7.30;2.50;;;;;;;10.85;100.00;100929.38;5244678;28;20353;-67
2022/09/16 06:19:55;;;;;;;5.33;2.03;;;;;;;10.88;100.00;100933.66;5244264;28;20036;-66
2022/09/16 06:22:29;;;;;;;4.93;1.80;;;;;;;10.88;100.00;100939.75;5244404;28;20389;-68
2022/09/16 06:25:01;;;;;;;5.03;1.83;;;;;;;10.97;100.00;100930.09;5242960;28;20340;-67
2022/09/16 06:27:32;;;;;;;8.03;2.03;;;;;;;11.01;100.00;100947.41;5243764;28;20037;-67
2022/09/16 06:30:04;;;;;;;9.63;2.40;;;;;;;11.01;100.00;100952.63;5243825;28;20065;-67
2022/09/16 06:32:36;;;;;;;6.07;1.70;;;;;;;11.04;100.00;100953.47;5242726;28;20025;-67
2022/09/16 06:35:08;;;;;;;4.75;1.52;;;;;;;11.06;100.00;100949.13;5243831;28;20083;-66
2022/09/16 06:37:40;;;;;;;5.20;1.48;;;;;;;11.10;100.00;100949.94;5244032;28;20071;-67
2022/09/16 06:40:11;;;;;;;6.27;1.70;;;;;;;11.12;100.00;100954.25;5243986;28;20465;-67
2022/09/16 06:42:42;;;;;;;5.90;1.80;;;;;;;11.10;100.00;100952.53;5244000;28;20033;-67
2022/09/16 06:45:14;;;;;;;4.53;1.80;;;;;;;11.08;100.00;100957.78;5243876;28;20095;-68
2022/09/16 06:47:45;;;;;;;5.63;1.57;;;;;;;11.10;100.00;100955.16;5244000;28;20026;-67
2022/09/16 06:50:17;;;;;;;3.47;1.50;;;;;;;11.12;100.00;100956.88;5243982;28;20030;-68
2022/09/16 06:52:51;;;;;;;5.90;1.57;;;;;;;11.10;100.00;100956.00;5243750;28;20060;-68
2022/09/16 06:55:22;;;;;;;6.68;2.30;;;;;;;11.16;100.00;100962.91;5243755;28;20034;-67
2022/09/16 06:57:55;;;;;;;6.67;2.37;;;;;;;11.16;100.00;100962.91;5243509;28;20040;-66
2022/09/16 07:00:26;;;;;;;;;;;;;;;11.20;100.00;100961.13;5243630;28;20333;-67
2022/09/16 07:03:01;;;;;;;4.22;1.83;;;;;;;11.07;100.00;100965.63;5243633;28;19912;-66
2022/09/16 07:05:33;;;;;;;4.60;1.48;;;;;;;11.06;100.00;100956.94;5243522;28;20032;-68
2022/09/16 07:08:04;;;;;;;8.48;1.92;;;;;;;11.17;100.00;100959.38;5243327;28;20030;-67
2022/09/16 07:10:36;;;;;;;6.07;2.33;;;;;;;11.29;100.00;100958.41;5243353;28;20096;-67
2022/09/16 07:13:07;;;;;;;4.83;2.23;;;;;;;11.37;100.00;100961.75;5243150;28;20071;-66
2022/09/16 07:15:38;;;;;;;2.60;1.50;;;;;;;11.43;99.89;100956.47;5243192;28;20476;-68
2022/09/16 07:18:10;;;;;;;4.97;2.40;;;;;;;11.51;99.08;100958.94;5243161;28;20040;-68
2022/09/16 07:20:41;;;;;;;8.60;1.97;;;;;;;11.61;98.11;100954.50;5241715;28;20029;-67
2022/09/16 07:23:12;;;;;;;5.50;1.70;;;;;;;11.72;97.42;100959.53;5241732;28;20117;-66
2022/09/16 07:25:44;;;;;;;11.07;2.57;;;;;;;11.91;96.67;100966.19;5241758;28;20034;-67
2022/09/16 07:28:15;;;;;;;4.43;1.93;;;;;;;12.08;95.74;100972.97;5242869;28;20033;-67
2022/09/16 07:30:46;;;;;;;4.73;2.13;;;;;;;12.38;95.77;100969.84;5242354;28;20026;-67
2022/09/16 07:33:18;;;;;;;4.93;2.10;;;;;;;12.58;92.31;100981.69;5242745;28;20396;-67
2022/09/16 07:35:49;;;;;;;7.33;1.73;;;;;;;12.68;91.26;100990.22;5243102;28;20037;-67
2022/09/16 07:38:20;;;;;;;7.57;2.17;;;;;;;12.73;91.75;100986.63;5242321;28;20065;-68
2022/09/16 07:40:52;;;;;;;5.97;2.00;;;;;;;12.67;92.30;100980.66;5257923;28;20033;-67
2022/09/16 07:43:23;;;;;;;4.07;1.73;;;;;;;12.48;90.05;100980.16;5242920;28;20029;-67
2022/09/16 07:45:58;;;;;;;4.67;1.50;;;;;;;12.36;90.69;100984.69;5257726;28;20065;-66
2022/09/16 07:48:31;;;;;;;7.45;2.13;;;;;;;12.54;92.55;100986.13;5242757;28;20026;-69
2022/09/16 07:51:14;;;;;;;8.38;1.40;;;;;;;12.58;92.49;100987.78;5243707;28;20035;-68
2022/09/16 07:53:46;;;;;;;5.45;1.98;;;;;;;12.49;92.11;100987.06;5243419;28;20061;-67
2022/09/16 07:56:20;;;;;;;3.78;1.98;;;;;;;12.32;93.33;100985.63;5241285;28;20033;-68
2022/09/16 07:58:53;;;;;;;4.90;1.75;;;;;;;12.31;95.00;100981.28;5242342;28;20076;-67
2022/09/16 08:01:25;;;;;;;6.10;2.03;;;;;;;12.18;95.72;100987.59;5241843;28;20551;-68
2022/09/16 08:03:58;;;;;;;5.53;2.08;;;;;;;12.03;96.79;100993.94;5242359;28;20033;-68
2022/09/16 08:06:31;;;;;;;4.25;1.80;;;;;;;11.97;97.93;101002.72;5242175;28;20224;-70
2022/09/16 08:09:02;;;;;;;5.10;2.08;;;;;;;12.05;98.41;101010.44;5242112;28;20465;-68
2022/09/16 08:11:34;;;;;;;8.93;2.20;;;;;;;12.09;98.52;101006.03;5242303;28;20040;-68
2022/09/16 08:14:05;;;;;;;10.90;2.33;;;;;;;12.10;97.98;101006.00;5257721;28;20120;-66
2022/09/16 08:16:37;;;;;;;6.07;1.97;;;;;;;12.23;98.38;100998.84;5257456;28;20034;-67
2022/09/16 08:19:08;;;;;;;9.50;2.43;;;;;;;12.30;98.27;100997.88;5241905;28;20044;-66
2022/09/16 08:21:39;;;;;;;5.77;1.90;;;;;;;12.55;97.99;100995.66;5257451;28;20033;-68
2022/09/16 08:24:11;;;;;;;8.27;2.97;;;;;;;12.98;98.32;100987.94;5241803;28;20029;-67
2022/09/16 08:26:42;;;;;;;6.67;2.17;;;;;;;12.99;94.69;101000.13;5242090;28;20134;-69
2022/09/16 08:29:15;;;;;;;6.78;2.10;;;;;;;13.25;93.76;101002.22;5241923;28;20057;-67
2022/09/16 08:31:46;;;;;;;7.87;2.77;;;;;;;13.34;91.58;101003.81;5241284;28;20527;-68
2022/09/16 08:34:17;;;;;;;5.53;1.77;;;;;;;13.43;91.62;101004.50;5241907;28;20107;-67
2022/09/16 08:36:49;;;;;;;5.23;1.90;;;;;;;13.30;93.48;101006.47;5241779;28;20029;-67
2022/09/16 08:39:20;;;;;;;4.47;2.97;;;;;;;13.29;92.26;101016.97;5241733;28;20107;-68
2022/09/16 08:42:09;;;;;;;6.07;2.20;;;;;;;13.44;90.42;101008.84;5240296;28;20476;-68
2022/09/16 08:45:28;;;;;;;5.78;2.08;;;;;;;13.48;90.18;101007.88;5242168;28;20017;-67
2022/09/16 08:48:27;;;;;;;9.32;2.30;;;;;;;13.30;89.74;101008.25;5214952;28;20045;-69
2022/09/16 08:50:59;;;;;;;6.75;1.98;;;;;;;13.77;91.21;101001.13;5241887;28;20476;-67
2022/09/16 08:53:31;;;;;;;;;;;;;;;14.14;89.09;101004.66;5242186;28;20029;-69
2022/09/16 08:56:06;;;;;;;8.45;1.90;;;;;;;14.44;85.75;101010.91;5241740;28;19963;-67
2022/09/16 08:58:40;;;;;;;4.68;2.00;;;;;;;14.63;82.33;101003.44;5241825;28;20037;-68
2022/09/16 09:01:26;;;;;;;6.22;1.63;;;;;;;15.07;83.27;101008.38;5241129;28;20438;-68
2022/09/16 09:03:57;;;;;;;5.15;1.40;;;;;;;15.68;82.39;101011.00;5257298;28;20029;-68
2022/09/16 09:06:57;;;;;;;5.83;2.10;;;;;;;15.82;77.37;101008.00;5241450;28;20096;-71
2022/09/16 09:09:57;;;;;;;4.30;1.70;;;;;;;15.92;79.51;101009.41;5241526;28;20085;-71
2022/09/16 09:13:03;;;;;;;5.32;1.60;;;;;;;16.08;71.72;101014.19;5241400;28;20041;-67
2022/09/16 09:15:44;;;;;;;5.72;1.52;;;;;;;15.97;70.16;101017.16;5209232;28;20041;-68
2022/09/16 09:18:57;;;;;;;5.72;1.60;;;;;;;16.29;74.38;101005.59;5241629;28;20465;-67
2022/09/16 09:21:39;;;;;;;9.50;2.13;;;;;;;15.84;71.41;101006.16;5241331;28;20112;-68
2022/09/16 09:25:08;;;;;;;4.80;1.55;;;;;;;15.37;73.35;101005.81;5241151;28;20057;-68
2022/09/16 09:27:52;;;;;;;7.15;1.40;;;;;;;14.78;74.95;101010.06;5177514;28;20070;-68
2022/09/16 09:30:26;;;;;;;5.43;1.63;;;;;;;14.55;75.91;101002.75;5161539;28;20048;-67
2022/09/16 09:33:03;;;;;;;4.60;2.15;;;;;;;14.87;75.70;100998.44;5219288;28;20061;-67
2022/09/16 09:35:48;;;;;;;6.63;3.67;;;;;;;14.47;75.66;101010.81;5240987;28;20033;-67
2022/09/16 09:38:38;;;;;;;5.28;1.60;;;;;;;14.34;76.45;100997.16;5241119;28;20033;-67
2022/09/16 09:41:33;;;;;;;5.10;1.80;;;;;;;15.27;74.55;100994.72;5241283;28;20037;-67
2022/09/16 09:44:23;;;;;;;4.68;1.48;;;;;;;16.62;67.11;101008.00;5241138;28;20034;-67
2022/09/16 09:47:00;;;;;;;5.10;1.70;;;;;;;16.54;66.17;100996.91;5240654;28;20135;-67
2022/09/16 09:49:36;;;;;;;6.13;2.28;;;;;;;16.60;66.03;101001.94;5240803;28;20033;-68
2022/09/16 09:52:22;;;;;;;5.95;1.90;;;;;;;17.33;66.62;100996.75;5239885;28;20057;-68
2022/09/16 09:54:55;;;;;;;7.75;1.60;;;;;;;17.62;62.97;100987.72;5240741;28;20033;-66
2022/09/16 09:57:39;;;;;;;4.60;1.60;;;;;;;16.96;62.38;100988.41;5240717;28;20549;-69
2022/09/16 10:00:15;;;;;;;4.07;1.60;;;;;;;18.27;63.63;101006.25;5240825;28;20034;-69
2022/09/16 10:02:47;;;;;;;4.45;1.75;;;;;;;18.02;59.27;101018.69;5242774;28;20045;-68
2022/09/16 10:05:27;;;;;;;6.73;1.33;;;;;;;16.59;58.52;101029.16;5244793;28;20480;-68
2022/09/16 10:08:11;;;;;;;3.15;1.10;;;;;;;15.32;63.87;101042.72;5244752;28;20021;-68
2022/09/16 10:10:51;;;;;;;4.55;1.42;;;;;;;14.06;72.36;101041.53;5244744;28;20052;-67
2022/09/16 10:13:25;;;;;;;5.85;1.85;;;;;;;13.25;79.74;101049.31;5244534;28;20045;-68
2022/09/16 10:16:13;;;;;;;8.60;2.30;;;;;;;12.06;83.39;101058.34;5244631;28;20041;-68
2022/09/16 10:19:12;;;;;;;8.95;2.63;;;;;;;11.65;86.71;101042.31;5243776;28;20037;-67
2022/09/16 10:21:49;;;;;;;6.32;1.00;;;;;;;11.58;88.84;101046.75;5227024;28;20447;-67
2022/09/16 10:24:39;;;;;;;1.55;0.98;;;;;;;11.61;89.71;101018.00;5244319;28;20036;-68
2022/09/16 10:27:28;;;;;;;4.03;1.05;;;;;;;11.70;89.82;101013.53;5244721;28;20471;-67
2022/09/16 10:30:02;;;;;;;3.72;0.80;;;;;;;11.85;88.56;101008.97;5244484;28;20236;-68
2022/09/16 10:32:51;;;;;;;1.20;0.70;;;;;;;12.08;90.45;101017.38;5243840;28;20022;-67
2022/09/16 10:35:25;;;;;;;3.47;1.25;;;;;;;12.25;90.79;101023.19;5243627;28;20108;-68
2022/09/16 10:38:01;;;;;;;2.05;0.85;;;;;;;12.09;84.65;101019.97;5242944;28;20036;-67
2022/09/16 10:40:33;;;;;;;2.00;0.70;;;;;;;12.47;87.81;101020.25;5244243;28;20401;-68
2022/09/16 10:43:12;;;;;;;3.27;1.00;;;;;;;12.31;86.76;101023.09;5243951;28;20053;-67
2022/09/16 10:45:51;;;;;;;4.95;1.05;;;;;;;12.59;90.90;101027.88;5243908;28;20100;-68
2022/09/16 10:48:26;;;;;;;2.92;1.02;;;;;;;13.07;88.80;101022.66;5244077;28;20091;-67
2022/09/16 10:51:05;;;;;;;2.88;1.13;;;;;;;15.08;84.58;101021.47;5243882;28;20052;-68
2022/09/16 10:53:44;;;;;;;1.00;0.77;;;;;;;16.93;74.26;101025.41;5243743;28;20079;-68
2022/09/16 10:56:19;;;;;;;4.80;1.00;;;;;;;16.99;70.71;101019.06;5243969;28;20116;-67
2022/09/16 10:59:20;;;;;;;2.08;0.90;;;;;;;16.72;73.62;101011.19;5243565;28;20038;-68
2022/09/16 11:02:24;;;;;;;3.25;1.23;;;;;;;16.05;74.68;101025.66;5230039;28;20045;-68
2022/09/16 11:05:37;;;;;;;3.92;1.10;;;;;;;14.97;77.73;101022.69;5243661;28;20094;-68
2022/09/16 11:08:46;;;;;;;2.55;1.42;;;;;;;14.41;80.61;101018.88;5243745;28;20489;-68
2022/09/16 11:11:27;;;;;;;5.53;1.90;;;;;;;14.27;83.99;101018.34;5258889;28;20042;-68
2022/09/16 11:14:31;;;;;;;4.57;1.75;;;;;;;14.05;84.29;101024.06;5242153;28;20029;-67
2022/09/16 11:17:18;;;;;;;3.90;1.70;;;;;;;14.11;84.68;101021.31;5243778;28;20034;-68
2022/09/16 11:20:10;;;;;;;4.57;1.60;;;;;;;13.74;84.71;101019.53;5243114;28;20022;-68
2022/09/16 11:22:49;;;;;;;6.05;2.00;;;;;;;13.91;86.85;101018.28;5243035;28;20034;-68
2022/09/16 11:25:29;;;;;;;4.00;1.80;;;;;;;13.74;83.17;101021.31;5243180;28;20036;-68
2022/09/16 11:28:19;;;;;;;5.32;1.85;;;;;;;13.85;85.53;101017.53;5243202;28;20054;-66
2022/09/16 11:31:08;;;;;;;4.72;1.50;;;;;;;15.35;85.18;101013.72;5242519;28;20611;-67
2022/09/16 11:34:00;;;;;;;5.75;1.83;;;;;;;17.03;75.73;101013.59;5243100;28;20029;-67
2022/09/16 11:36:34;;;;;;;5.90;2.03;;;;;;;18.58;66.11;101021.69;5244397;28;20029;-66
2022/09/16 11:39:17;;;;;;;5.35;1.92;;;;;;;19.21;61.63;101021.59;5243462;28;20022;-67
2022/09/16 11:42:13;;;;;;;5.00;1.98;;;;;;;19.21;64.74;101032.16;5242978;28;20469;-68
2022/09/16 11:45:07;;;;;;;4.95;1.70;;;;;;;20.34;60.21;101040.97;5242673;28;20469;-67
2022/09/16 11:47:53;;;;;;;5.55;1.70;;;;;;;20.31;60.54;101033.19;5242379;28;20061;-68
2022/09/16 11:50:29;;;;;;;5.88;1.38;;;;;;;21.02;56.57;101034.91;5242752;28;20060;-67
2022/09/16 11:53:35;;;;;;;4.85;1.60;;;;;;;21.74;59.00;101034.63;5242667;28;20504;-68
2022/09/16 11:56:15;;;;;;;3.80;1.70;;;;;;;19.42;57.10;101037.41;5242780;28;20107;-68
2022/09/16 11:58:59;;;;;;;7.75;1.98;;;;;;;17.59;61.42;101036.13;5242532;28;20389;-68
2022/09/16 12:01:43;;;;;;;4.38;1.52;;;;;;;16.97;65.06;101036.66;5242179;28;20082;-68
2022/09/16 12:04:37;;;;;;;5.68;1.33;;;;;;;16.62;68.68;101031.69;5242399;28;20128;-69
2022/09/16 12:07:15;;;;;;;4.50;1.48;;;;;;;15.97;73.88;101036.44;5234219;28;20041;-67
2022/09/16 12:09:49;;;;;;;6.10;2.13;;;;;;;15.99;75.80;101042.50;5257682;28;20053;-67
2022/09/16 12:12:46;;;;;;;3.10;1.05;;;;;;;15.54;72.76;101042.97;5242078;28;20033;-68